Time;durP1;ratioP1;P1;durP2;ratioP2;P2;SDS_P1;SDS_P2;PMS_P1;PMS_P2;Temp;Humidity;BMP_temperature;BMP_pressure;BME280_temperature;BME280_humidity;BME280_pressure;Samples;Min_cycle;Max_cycle;Signal;HPM_P1;HPM_P2
2023/03/06 00:01:31;;;;;;;5.82;3.17;;;;;;;-2.07;79.33;97414.31;7342142;19;20016;-74
2023/03/06 00:03:55;;;;;;;3.58;2.58;;;;;;;-2.01;79.40;97424.41;7344623;19;20116;-77
2023/03/06 00:06:20;;;;;;;4.35;2.58;;;;;;;-1.96;79.31;97427.59;7346763;19;20380;-78
2023/03/06 00:08:45;;;;;;;6.20;3.42;;;;;;;-1.98;79.26;97416.41;7347669;19;20011;-77
2023/03/06 00:11:13;;;;;;;3.45;2.75;;;;;;;-1.95;79.09;97423.22;7346433;19;20082;-78
2023/03/06 00:13:38;;;;;;;5.20;3.30;;;;;;;-1.97;78.92;97420.69;7341200;19;20739;-77
2023/03/06 00:16:03;;;;;;;4.95;2.88;;;;;;;-2.05;78.73;97415.06;7344341;19;20472;-79
2023/03/06 00:18:28;;;;;;;3.97;3.05;;;;;;;-2.07;78.85;97423.91;7348358;19;20021;-81
2023/03/06 00:20:52;;;;;;;4.65;2.95;;;;;;;-2.14;79.07;97433.03;7345441;19;20030;-72
2023/03/06 00:23:17;;;;;;;4.80;3.03;;;;;;;-2.26;78.90;97419.69;7343124;19;20629;-73
2023/03/06 00:25:44;;;;;;;6.07;3.42;;;;;;;-2.21;79.19;97425.53;7338224;19;20360;-71
2023/03/06 00:28:08;;;;;;;4.28;2.90;;;;;;;-2.18;79.32;97421.06;7344334;19;20014;-71
2023/03/06 00:30:34;;;;;;;5.15;3.30;;;;;;;-2.18;79.32;97424.50;7342011;19;20019;-73
2023/03/06 00:33:00;;;;;;;9.88;3.78;;;;;;;-2.24;79.49;97430.91;7343182;19;20041;-73
2023/03/06 00:35:24;;;;;;;9.10;4.55;;;;;;;-2.31;79.41;97431.34;7343475;19;20051;-73
2023/03/06 00:37:49;;;;;;;6.90;4.18;;;;;;;-2.27;79.41;97428.50;7344618;19;20024;-74
2023/03/06 00:40:18;;;;;;;6.82;3.72;;;;;;;-2.26;79.36;97421.50;7342792;19;20018;-73
2023/03/06 00:42:42;;;;;;;7.00;4.43;;;;;;;-2.27;79.56;97422.44;7346329;19;20014;-72
2023/03/06 00:45:08;;;;;;;6.50;3.97;;;;;;;-2.23;79.39;97429.13;7346819;19;20034;-74
2023/03/06 00:47:32;;;;;;;8.00;3.88;;;;;;;-2.23;79.44;97416.94;7343337;19;20022;-73
2023/03/06 00:49:57;;;;;;;10.05;5.47;;;;;;;-2.30;79.38;97423.44;7343997;19;20010;-75
2023/03/06 00:52:22;;;;;;;10.60;6.30;;;;;;;-2.37;79.70;97427.28;7342604;19;20022;-74
2023/03/06 00:54:46;;;;;;;6.72;4.38;;;;;;;-2.31;79.61;97432.19;7343599;19;20010;-73
2023/03/06 00:57:11;;;;;;;7.32;4.55;;;;;;;-2.24;79.62;97422.22;7344881;19;20484;-73
2023/03/06 00:59:36;;;;;;;7.05;4.50;;;;;;;-2.33;79.49;97420.13;7341687;19;20493;-74
2023/03/06 01:02:01;;;;;;;7.18;4.65;;;;;;;-2.34;79.70;97431.50;7343985;19;20022;-74
2023/03/06 01:04:26;;;;;;;9.48;4.80;;;;;;;-2.37;79.74;97423.88;7342936;19;20791;-74
2023/03/06 01:06:50;;;;;;;7.78;4.07;;;;;;;-2.43;79.88;97422.41;7344286;19;20456;-74
2023/03/06 01:09:15;;;;;;;9.15;5.20;;;;;;;-2.42;79.95;97412.81;7342847;19;20018;-72
2023/03/06 01:11:40;;;;;;;6.05;3.75;;;;;;;-2.39;80.10;97423.09;7341663;19;20018;-72
2023/03/06 01:14:05;;;;;;;5.32;3.90;;;;;;;-2.43;80.01;97434.63;7340657;19;20019;-71
2023/03/06 01:16:29;;;;;;;6.55;4.07;;;;;;;-2.40;80.44;97424.03;7342760;19;20022;-74
2023/03/06 01:18:54;;;;;;;7.65;4.53;;;;;;;-2.40;80.50;97424.03;7343562;19;20347;-75
2023/03/06 01:21:20;;;;;;;6.03;3.58;;;;;;;-2.36;80.21;97428.97;7341409;19;20014;-73
2023/03/06 01:23:46;;;;;;;5.90;3.83;;;;;;;-2.35;80.22;97437.63;7343387;19;20014;-75
2023/03/06 01:26:10;;;;;;;5.43;3.30;;;;;;;-2.34;80.22;97423.66;7342317;19;20408;-74
2023/03/06 01:28:37;;;;;;;5.78;3.53;;;;;;;-2.35;80.30;97421.97;7342451;19;20023;-72
2023/03/06 01:31:03;;;;;;;6.93;3.33;;;;;;;-2.45;80.06;97431.25;7344733;19;20019;-73
2023/03/06 01:33:28;;;;;;;7.18;3.75;;;;;;;-2.47;80.09;97425.25;7350186;19;20018;-72
2023/03/06 01:35:54;;;;;;;4.75;3.53;;;;;;;-2.46;80.26;97430.41;7354753;19;20355;-74
2023/03/06 01:38:18;;;;;;;5.22;3.10;;;;;;;-2.44;80.30;97427.72;7349523;19;20363;-73
2023/03/06 01:40:43;;;;;;;5.70;3.53;;;;;;;-2.48;80.27;97424.41;7345659;19;20007;-72
2023/03/06 01:43:27;;;;;;;5.35;3.13;;;;;;;-2.43;80.34;97434.63;7343130;19;20018;-72
2023/03/06 01:46:30;;;;;;;5.85;3.40;;;;;;;-2.43;80.31;97432.84;7347463;19;20017;-73
2023/03/06 01:48:56;;;;;;;5.15;2.90;;;;;;;-2.44;80.44;97445.97;7346192;19;20025;-70
2023/03/06 01:51:24;;;;;;;4.18;3.35;;;;;;;-2.43;80.32;97442.44;7343375;19;20022;-75
2023/03/06 01:53:51;;;;;;;4.78;3.00;;;;;;;-2.47;80.43;97443.53;7343088;19;20085;-73
2023/03/06 01:56:15;;;;;;;5.50;3.40;;;;;;;-2.50;80.44;97436.72;7341922;19;20015;-70
2023/03/06 01:58:45;;;;;;;3.63;2.92;;;;;;;-2.47;80.64;97443.53;7341932;19;20101;-74
2023/03/06 02:01:13;;;;;;;4.40;2.97;;;;;;;-2.45;80.55;97444.28;7343009;19;20083;-72
2023/03/06 02:03:39;;;;;;;4.97;3.30;;;;;;;-2.42;80.62;97444.97;7342832;19;20023;-68
2023/03/06 02:06:04;;;;;;;6.18;3.17;;;;;;;-2.46;80.38;97437.38;7343567;19;20015;-74
2023/03/06 02:08:30;;;;;;;4.75;3.30;;;;;;;-2.44;80.41;97451.19;7343384;19;20597;-74
2023/03/06 02:11:16;;;;;;;3.80;2.17;;;;;;;-2.41;80.41;97441.44;7344485;19;20010;-73
2023/03/06 02:14:01;;;;;;;5.57;3.70;;;;;;;-2.47;80.46;97443.53;7340963;19;20386;-73
2023/03/06 02:16:30;;;;;;;2.63;2.42;;;;;;;-2.47;80.46;97443.53;7343997;19;20018;-76
2023/03/06 02:18:59;;;;;;;6.25;4.20;;;;;;;-2.52;80.55;97453.38;7345443;19;20037;-77
2023/03/06 02:21:34;;;;;;;4.68;3.45;;;;;;;-2.57;80.59;97448.41;7343054;19;20015;-75
2023/03/06 02:24:09;;;;;;;7.38;3.85;;;;;;;-2.52;80.62;97445.56;7343559;19;20022;-78
2023/03/06 02:26:36;;;;;;;6.82;4.55;;;;;;;-2.62;80.48;97448.66;7343376;19;20011;-73
2023/03/06 02:29:01;;;;;;;9.63;5.32;;;;;;;-2.69;80.61;97447.28;7344129;19;20014;-72
2023/03/06 02:31:28;;;;;;;6.80;4.28;;;;;;;-2.66;80.66;97449.75;7344168;19;20030;-72
2023/03/06 02:34:22;;;;;;;7.70;5.03;;;;;;;-2.64;80.76;97447.91;7346027;19;20042;-74
2023/03/06 02:37:03;;;;;;;8.07;4.68;;;;;;;-2.65;80.67;97447.97;7346156;19;20017;-73
2023/03/06 02:39:32;;;;;;;9.55;5.95;;;;;;;-2.82;80.86;97451.47;7350425;19;20018;-74
2023/03/06 02:41:57;;;;;;;6.88;5.00;;;;;;;-2.85;80.93;97437.78;7354363;19;20074;-73
2023/03/06 02:44:23;;;;;;;7.13;4.30;;;;;;;-2.87;81.33;97448.28;7349404;19;20490;-73
2023/03/06 02:46:47;;;;;;;8.00;4.85;;;;;;;-2.95;81.70;97445.25;7347978;19;20134;-71
2023/03/06 02:49:12;;;;;;;8.35;4.30;;;;;;;-2.88;81.74;97444.00;7351510;19;20042;-71
2023/03/06 02:51:36;;;;;;;6.45;4.45;;;;;;;-2.85;81.77;97446.44;7349353;19;20014;-71
2023/03/06 02:54:01;;;;;;;6.63;4.03;;;;;;;-2.84;81.72;97449.91;7347771;19;20018;-72
2023/03/06 02:56:26;;;;;;;7.97;3.92;;;;;;;-2.80;81.80;97451.41;7349281;19;20683;-72
2023/03/06 02:58:51;;;;;;;7.70;4.22;;;;;;;-2.84;81.86;97449.91;7349261;19;20010;-75
2023/03/06 03:01:15;;;;;;;6.40;4.20;;;;;;;-2.84;81.95;97442.91;7349526;19;20478;-72
2023/03/06 03:03:40;;;;;;;7.53;4.65;;;;;;;-2.87;82.28;97450.88;7349395;19;20023;-73
2023/03/06 03:06:06;;;;;;;6.85;3.95;;;;;;;-2.79;81.90;97451.31;7345880;19;20041;-73
2023/03/06 03:08:33;;;;;;;8.90;4.75;;;;;;;-2.96;82.13;97436.59;7347543;19;20018;-74
2023/03/06 03:11:00;;;;;;;6.97;4.18;;;;;;;-2.89;82.43;97447.50;7347988;19;20019;-74
2023/03/06 03:13:31;;;;;;;6.80;4.45;;;;;;;-2.86;82.54;97449.97;7345228;19;20098;-73
2023/03/06 03:16:03;;;;;;;5.40;3.78;;;;;;;-2.77;82.61;97444.25;7348480;19;20469;-74
2023/03/06 03:18:28;;;;;;;7.35;4.65;;;;;;;-2.83;82.83;97455.03;7348113;19;20029;-70
2023/03/06 03:20:53;;;;;;;7.70;4.80;;;;;;;-2.80;82.72;97443.56;7350611;19;20014;-73
2023/03/06 03:23:18;;;;;;;6.97;4.55;;;;;;;-2.77;82.70;97446.88;7350825;19;20029;-71
2023/03/06 03:25:42;;;;;;;9.95;5.07;;;;;;;-2.75;82.83;97452.00;7349351;19;20011;-75
2023/03/06 03:28:07;;;;;;;6.32;4.55;;;;;;;-2.75;83.02;97452.00;7350552;19;20018;-71
2023/03/06 03:30:32;;;;;;;7.18;4.07;;;;;;;-2.71;82.90;97441.31;7350408;19;20006;-71
2023/03/06 03:32:57;;;;;;;6.68;4.05;;;;;;;-2.70;82.74;97453.44;7347689;19;20106;-72
2023/03/06 03:35:22;;;;;;;9.18;5.00;;;;;;;-2.70;82.91;97448.22;7349778;19;20035;-72
2023/03/06 03:37:47;;;;;;;8.65;5.43;;;;;;;-2.68;83.01;97454.19;7347219;19;20010;-71
2023/03/06 03:40:12;;;;;;;8.43;5.45;;;;;;;-2.65;83.15;97459.25;7348090;19;20033;-71
2023/03/06 03:42:37;;;;;;;10.20;4.45;;;;;;;-2.63;82.90;97457.41;7349529;19;20018;-71
2023/03/06 03:45:03;;;;;;;7.15;4.35;;;;;;;-2.70;82.77;97452.59;7349587;19;20018;-71
2023/03/06 03:47:28;;;;;;;10.02;6.18;;;;;;;-2.77;82.93;97453.84;7348965;19;20334;-72
2023/03/06 03:49:53;;;;;;;9.77;4.65;;;;;;;-2.75;82.71;97463.28;7349868;19;20338;-71
2023/03/06 03:52:19;;;;;;;8.20;5.05;;;;;;;-2.74;83.10;97459.75;7347438;19;20472;-71
2023/03/06 03:54:43;;;;;;;7.90;4.53;;;;;;;-2.72;83.17;97460.53;7348678;19;20421;-71
2023/03/06 03:57:08;;;;;;;8.65;5.03;;;;;;;-2.75;83.12;97452.84;7347688;19;20007;-71
2023/03/06 03:59:37;;;;;;;7.00;4.50;;;;;;;-2.71;83.19;97456.97;7350294;19;20006;-71
2023/03/06 04:02:15;;;;;;;7.38;4.18;;;;;;;-2.71;83.43;97464.78;7351613;19;20026;-71
2023/03/06 04:04:49;;;;;;;9.00;5.63;;;;;;;-2.69;83.41;97460.34;7355559;19;20007;-71
2023/03/06 04:07:14;;;;;;;7.25;4.63;;;;;;;-2.71;83.31;97461.38;7357217;19;20019;-71
2023/03/06 04:09:39;;;;;;;8.85;4.85;;;;;;;-2.69;83.34;97455.13;7358144;19;20039;-69
2023/03/06 04:12:04;;;;;;;7.32;5.22;;;;;;;-2.69;83.52;97468.16;7355949;19;20469;-71
2023/03/06 04:14:30;;;;;;;9.57;5.97;;;;;;;-2.70;83.28;97461.25;7350945;19;20042;-72
2023/03/06 04:16:55;;;;;;;8.90;5.30;;;;;;;-2.69;83.04;97456.88;7348703;19;20039;-72
2023/03/06 04:19:20;;;;;;;14.68;6.63;;;;;;;-2.72;83.41;97460.53;7356617;19;20038;-72
2023/03/06 04:21:44;;;;;;;9.80;6.07;;;;;;;-2.71;83.34;97456.16;7356985;19;20015;-72
2023/03/06 04:24:09;;;;;;;9.68;6.00;;;;;;;-2.73;83.20;97456.22;7357836;19;20018;-71
2023/03/06 04:26:34;;;;;;;8.05;5.35;;;;;;;-2.69;83.57;97456.88;7357841;19;20022;-72
2023/03/06 04:28:59;;;;;;;9.38;6.00;;;;;;;-2.70;83.35;97460.41;7359126;19;20017;-72
2023/03/06 04:31:24;;;;;;;8.07;5.10;;;;;;;-2.74;83.47;97454.53;7357385;19;20473;-72
2023/03/06 04:33:49;;;;;;;9.65;5.45;;;;;;;-2.69;83.30;97447.28;7356281;19;20018;-72
2023/03/06 04:36:26;;;;;;;12.07;6.05;;;;;;;-2.66;83.19;97449.75;7346892;19;20461;-70
2023/03/06 04:38:53;;;;;;;9.23;5.60;;;;;;;-2.70;83.15;97453.44;7348803;19;20042;-71
2023/03/06 04:41:18;;;;;;;8.73;4.78;;;;;;;-2.62;83.33;97448.66;7346230;19;20010;-69
2023/03/06 04:43:42;;;;;;;8.52;5.72;;;;;;;-2.56;83.34;97456.16;7347172;19;20019;-68
2023/03/06 04:46:09;;;;;;;7.15;4.85;;;;;;;-2.54;83.23;97460.44;7352523;19;20026;-73
2023/03/06 04:48:35;;;;;;;9.05;5.38;;;;;;;-2.52;82.97;97459.44;7365163;19;20018;-73
2023/03/06 04:50:59;;;;;;;10.68;5.55;;;;;;;-2.58;82.91;97458.00;7368417;19;20014;-75
2023/03/06 04:53:25;;;;;;;7.00;5.03;;;;;;;-2.49;83.10;97459.28;7361683;19;20130;-74
2023/03/06 04:55:50;;;;;;;10.60;5.18;;;;;;;-2.40;82.83;97457.94;7363987;19;20021;-73
2023/03/06 04:58:14;;;;;;;9.18;5.50;;;;;;;-2.52;82.92;97463.81;7367425;19;20026;-73
2023/03/06 05:00:39;;;;;;;9.13;5.18;;;;;;;-2.50;83.05;97459.38;7361839;19;20049;-73
2023/03/06 05:03:04;;;;;;;8.32;5.07;;;;;;;-2.46;82.85;97463.47;7358702;19;20019;-74
2023/03/06 05:05:29;;;;;;;7.97;4.80;;;;;;;-2.36;82.79;97459.44;7349261;19;20015;-74
2023/03/06 05:07:53;;;;;;;8.20;5.07;;;;;;;-2.26;82.84;97465.88;7347061;19;20018;-73
2023/03/06 05:10:18;;;;;;;11.10;5.30;;;;;;;-2.16;82.90;97472.25;7342741;19;20031;-73
2023/03/06 05:12:43;;;;;;;8.13;4.65;;;;;;;-2.10;82.57;97461.47;7344824;19;20010;-72
2023/03/06 05:15:09;;;;;;;7.07;4.53;;;;;;;-2.08;82.34;97464.00;7343602;19;20042;-72
2023/03/06 05:17:34;;;;;;;9.13;4.78;;;;;;;-2.12;82.22;97465.91;7342584;19;20449;-73
2023/03/06 05:19:59;;;;;;;7.07;4.65;;;;;;;-2.10;82.15;97466.69;7340953;19;20472;-73
2023/03/06 05:22:23;;;;;;;7.68;4.70;;;;;;;-2.13;82.03;97474.69;7342938;19;20021;-73
2023/03/06 05:24:48;;;;;;;6.72;4.18;;;;;;;-2.16;82.30;97474.03;7346095;19;20347;-73
2023/03/06 05:27:13;;;;;;;6.88;4.60;;;;;;;-2.23;82.67;97468.28;7342018;19;20033;-69
2023/03/06 05:29:37;;;;;;;7.38;4.80;;;;;;;-2.27;82.96;97483.28;7343498;19;20031;-69
2023/03/06 05:32:02;;;;;;;7.43;4.70;;;;;;;-2.20;83.09;97470.72;7341334;19;20011;-69
2023/03/06 05:34:27;;;;;;;10.30;5.00;;;;;;;-2.22;83.32;97472.56;7341262;19;20033;-70
2023/03/06 05:36:51;;;;;;;6.45;4.57;;;;;;;-2.13;83.51;97469.47;7341389;19;20078;-71
2023/03/06 05:39:16;;;;;;;6.75;4.55;;;;;;;-1.97;83.59;97472.91;7342771;19;20018;-70
2023/03/06 05:41:41;;;;;;;7.70;4.60;;;;;;;-1.87;83.10;97468.84;7341269;19;20051;-68
2023/03/06 05:44:05;;;;;;;9.45;5.47;;;;;;;-1.86;82.95;97475.75;7344379;19;20010;-69
2023/03/06 05:46:30;;;;;;;7.38;4.63;;;;;;;-1.79;82.79;97468.41;7341930;19;20015;-69
2023/03/06 05:48:56;;;;;;;7.07;4.40;;;;;;;-1.63;82.75;97468.41;7342241;19;20019;-72
2023/03/06 05:51:20;;;;;;;5.88;4.10;;;;;;;-1.49;82.16;97471.91;7340701;19;20019;-73
2023/03/06 05:53:45;;;;;;;5.90;3.58;;;;;;;-1.32;81.57;97470.06;7342467;19;20035;-73
2023/03/06 05:56:10;;;;;;;5.32;3.35;;;;;;;-1.18;81.12;97478.78;7340719;19;20007;-72
2023/03/06 05:58:35;;;;;;;6.30;4.20;;;;;;;-1.15;80.05;97483.84;7343863;19;20006;-71
2023/03/06 06:01:00;;;;;;;6.90;4.00;;;;;;;-1.13;78.85;97481.16;7340647;19;20025;-71
2023/03/06 06:03:25;;;;;;;5.80;3.75;;;;;;;-1.08;78.25;97467.78;7342168;19;20015;-71
2023/03/06 06:05:50;;;;;;;6.10;3.42;;;;;;;-1.08;77.41;97479.09;7341141;19;20744;-70
2023/03/06 06:08:15;;;;;;;5.90;5.22;;;;;;;-1.24;77.12;97489.59;7350831;19;20033;-69
2023/03/06 06:10:40;;;;;;;6.00;3.65;;;;;;;-1.15;77.67;97483.84;7348019;19;20018;-71
2023/03/06 06:13:04;;;;;;;5.80;3.75;;;;;;;-1.19;77.08;97481.50;7348941;19;20014;-70
2023/03/06 06:15:29;;;;;;;5.63;3.08;;;;;;;-1.31;76.75;97488.28;7348211;19;20045;-69
2023/03/06 06:17:55;;;;;;;4.72;3.40;;;;;;;-1.37;76.29;97475.56;7349581;19;20024;-69
2023/03/06 06:20:20;;;;;;;7.18;3.58;;;;;;;-1.43;76.31;97473.31;7348082;19;20086;-69
2023/03/06 06:22:45;;;;;;;3.85;2.83;;;;;;;-1.50;76.49;97487.66;7349805;19;20035;-70
2023/03/06 06:25:09;;;;;;;7.75;4.22;;;;;;;-1.47;76.81;97484.88;7349759;19;20022;-69
2023/03/06 06:27:34;;;;;;;6.10;4.50;;;;;;;-1.47;76.89;97479.66;7350040;19;20014;-69
2023/03/06 06:29:58;;;;;;;5.45;3.80;;;;;;;-1.47;77.07;97475.25;7348075;19;20100;-69
2023/03/06 06:32:23;;;;;;;5.03;3.35;;;;;;;-1.43;77.09;97478.53;7350308;19;20021;-69
2023/03/06 06:34:47;;;;;;;5.57;3.72;;;;;;;-1.55;76.72;97480.06;7344519;19;20433;-69
2023/03/06 06:37:12;;;;;;;3.08;2.47;;;;;;;-1.55;76.60;97487.06;7347814;19;20022;-69
2023/03/06 06:39:37;;;;;;;6.57;3.65;;;;;;;-1.41;76.77;97492.34;7348483;19;20006;-69
2023/03/06 06:42:02;;;;;;;6.90;3.95;;;;;;;-1.50;76.59;97483.28;7348970;19;20015;-69
2023/03/06 06:44:26;;;;;;;5.10;3.70;;;;;;;-1.57;76.25;97487.16;7346005;19;20031;-72
2023/03/06 06:46:51;;;;;;;6.85;3.60;;;;;;;-1.47;76.36;97492.72;7348843;19;20011;-68
2023/03/06 06:49:16;;;;;;;5.32;4.10;;;;;;;-1.47;76.42;97492.72;7346483;19;20025;-70
2023/03/06 06:51:41;;;;;;;6.93;3.28;;;;;;;-1.32;76.10;97489.19;7347470;19;20342;-69
2023/03/06 06:54:06;;;;;;;5.90;3.63;;;;;;;-1.26;75.47;97495.84;7344228;19;20007;-69
2023/03/06 06:56:31;;;;;;;4.00;2.95;;;;;;;-1.27;75.26;97500.25;7348803;19;20035;-70
2023/03/06 06:58:58;;;;;;;3.58;2.50;;;;;;;-1.30;74.90;97495.19;7346625;19;20026;-70
2023/03/06 07:01:23;;;;;;;4.57;2.90;;;;;;;-1.46;74.39;97497.00;7346789;19;20028;-69
2023/03/06 07:03:48;;;;;;;9.32;3.22;;;;;;;-1.38;74.49;97500.03;7346728;19;20394;-72
2023/03/06 07:06:13;;;;;;;5.20;3.17;;;;;;;-1.27;74.46;97502.84;7348110;19;20358;-72
2023/03/06 07:08:38;;;;;;;9.80;3.17;;;;;;;-1.39;73.87;97495.72;7345121;19;20353;-72
2023/03/06 07:11:13;;;;;;;3.70;2.58;;;;;;;-1.42;73.68;97490.66;7347675;19;20030;-73
2023/03/06 07:13:38;;;;;;;7.30;3.10;;;;;;;-1.39;73.78;97500.94;7346503;19;20026;-77
2023/03/06 07:16:03;;;;;;;4.00;2.92;;;;;;;-1.19;73.68;97512.84;7350972;19;20010;-71
2023/03/06 07:18:28;;;;;;;3.50;2.75;;;;;;;-1.08;73.44;97504.38;7350217;19;20022;-72
2023/03/06 07:20:53;;;;;;;4.97;2.95;;;;;;;-1.12;72.68;97494.09;7351054;19;20457;-72
2023/03/06 07:23:18;;;;;;;3.45;1.90;;;;;;;-1.15;72.53;97498.69;7349423;19;20015;-72
2023/03/06 07:25:43;;;;;;;5.22;2.85;;;;;;;-1.03;72.46;97502.34;7349865;19;20018;-72
2023/03/06 07:28:08;;;;;;;5.20;2.47;;;;;;;-0.83;72.72;97502.84;7345653;19;20037;-72
2023/03/06 07:30:32;;;;;;;3.63;2.30;;;;;;;-0.73;71.82;97490.06;7347691;19;20025;-72
2023/03/06 07:32:58;;;;;;;2.25;2.00;;;;;;;-0.52;71.33;97504.44;7350681;19;20030;-72
2023/03/06 07:35:24;;;;;;;4.60;3.10;;;;;;;-0.30;71.48;97500.50;7347741;19;20777;-71
2023/03/06 07:37:50;;;;;;;3.47;2.20;;;;;;;-0.19;70.83;97517.22;7345543;19;20021;-70
2023/03/06 07:40:14;;;;;;;4.85;2.50;;;;;;;-0.10;69.72;97505.34;7346968;19;20010;-71
2023/03/06 07:42:39;;;;;;;2.70;2.42;;;;;;;-0.01;69.18;97500.38;7349503;19;20018;-69
2023/03/06 07:45:09;;;;;;;3.10;2.20;;;;;;;0.15;68.82;97510.72;7347069;19;20458;-69
2023/03/06 07:47:33;;;;;;;3.10;2.05;;;;;;;-0.13;67.94;97516.88;7352677;19;20015;-70
2023/03/06 07:50:01;;;;;;;5.95;2.80;;;;;;;-0.22;67.88;97521.81;7350792;19;20434;-70
2023/03/06 07:52:28;;;;;;;4.20;2.22;;;;;;;-0.19;68.71;97522.47;7347475;19;20007;-70
2023/03/06 07:54:53;;;;;;;4.30;2.65;;;;;;;-0.28;68.46;97511.72;7350050;19;20018;-75
2023/03/06 07:57:17;;;;;;;7.65;2.75;;;;;;;-0.28;67.94;97522.19;7350205;19;20028;-69
2023/03/06 07:59:42;;;;;;;3.65;2.28;;;;;;;-0.15;67.94;97513.50;7345659;19;20011;-70
2023/03/06 08:02:09;;;;;;;1.65;1.42;;;;;;;-0.08;67.60;97521.78;7347126;19;20036;-71
2023/03/06 08:04:34;;;;;;;3.88;2.35;;;;;;;0.07;67.33;97520.84;7348212;19;20411;-71
2023/03/06 08:06:59;;;;;;;5.18;2.92;;;;;;;0.09;67.15;97518.97;7348900;19;20038;-72
2023/03/06 08:09:24;;;;;;;2.28;1.77;;;;;;;0.31;67.25;97516.66;7347094;19;20171;-71
2023/03/06 08:11:49;;;;;;;2.65;2.08;;;;;;;0.22;65.93;97512.03;7347465;19;20037;-71
2023/03/06 08:14:13;;;;;;;4.03;2.00;;;;;;;0.24;65.41;97511.91;7346177;19;20010;-70
2023/03/06 08:16:38;;;;;;;2.78;2.05;;;;;;;0.42;65.36;97515.13;7349409;19;20019;-70
2023/03/06 08:19:03;;;;;;;4.57;2.53;;;;;;;0.41;64.57;97516.91;7348645;19;20026;-69
2023/03/06 08:21:27;;;;;;;5.55;2.75;;;;;;;0.30;64.98;97514.97;7349937;19;20022;-69
2023/03/06 08:23:53;;;;;;;6.45;2.75;;;;;;;0.14;65.73;97518.66;7347927;19;20028;-69
2023/03/06 08:26:23;;;;;;;2.65;1.83;;;;;;;0.15;66.53;97536.06;7346962;19;20018;-71
2023/03/06 08:28:50;;;;;;;2.70;1.42;;;;;;;0.29;66.69;97518.53;7345798;19;20043;-71
2023/03/06 08:31:41;;;;;;;1.45;1.35;;;;;;;0.82;66.68;97526.47;7343111;19;20461;-71
2023/03/06 08:34:11;;;;;;;1.90;1.67;;;;;;;1.15;65.87;97512.88;7345013;19;20030;-70
2023/03/06 08:36:36;;;;;;;1.65;1.42;;;;;;;1.38;65.02;97509.53;7344708;19;20018;-71
2023/03/06 08:39:02;;;;;;;2.72;1.42;;;;;;;1.41;63.79;97520.69;7344751;19;20055;-70
2023/03/06 08:41:27;;;;;;;2.72;1.25;;;;;;;1.48;63.42;97515.84;7342871;19;20521;-71
2023/03/06 08:43:51;;;;;;;3.60;1.77;;;;;;;1.41;63.53;97525.09;7349218;19;20589;-71
2023/03/06 08:46:20;;;;;;;2.90;1.95;;;;;;;1.24;62.66;97515.72;7353559;19;20029;-72
2023/03/06 08:48:46;;;;;;;4.60;1.55;;;;;;;0.87;61.95;97527.88;7359502;19;20044;-70
2023/03/06 08:51:11;;;;;;;1.85;1.23;;;;;;;0.81;62.56;97520.38;7353254;19;20011;-70
2023/03/06 08:53:36;;;;;;;1.90;1.30;;;;;;;0.61;62.38;97532.19;7355133;19;20030;-70
2023/03/06 08:56:01;;;;;;;2.25;1.17;;;;;;;0.58;62.80;97527.13;7351215;19;20026;-70
2023/03/06 08:58:25;;;;;;;1.48;1.23;;;;;;;0.44;62.86;97527.22;7353692;19;20018;-69
2023/03/06 09:00:50;;;;;;;3.13;1.50;;;;;;;0.42;63.57;97518.59;7341668;19;20566;-69
2023/03/06 09:03:15;;;;;;;4.35;1.50;;;;;;;0.47;63.95;97531.38;7342583;19;20700;-72
2023/03/06 09:05:40;;;;;;;3.80;2.13;;;;;;;0.39;63.81;97533.66;7340783;19;20021;-72
2023/03/06 09:08:05;;;;;;;1.83;1.50;;;;;;;0.25;63.87;97530.16;7342297;19;20029;-71
2023/03/06 09:10:29;;;;;;;5.07;1.77;;;;;;;0.29;64.00;97539.50;7340292;19;20018;-70
2023/03/06 09:12:54;;;;;;;4.43;1.77;;;;;;;0.26;63.98;97531.00;7340713;19;20010;-70
2023/03/06 09:15:19;;;;;;;3.42;1.17;;;;;;;0.22;63.67;97529.53;7340210;19;20014;-71
2023/03/06 09:17:46;;;;;;;2.95;1.42;;;;;;;0.41;63.82;97532.63;7341125;19;20347;-71
2023/03/06 09:20:11;;;;;;;2.33;2.00;;;;;;;0.32;63.19;97531.47;7339886;19;20021;-69
2023/03/06 09:22:35;;;;;;;4.78;1.60;;;;;;;0.44;63.46;97542.09;7343384;19;20022;-70
2023/03/06 09:25:00;;;;;;;1.15;1.05;;;;;;;0.44;62.97;97537.69;7342419;19;20011;-69
2023/03/06 09:27:27;;;;;;;0.88;0.88;;;;;;;0.57;63.24;97538.56;7342356;19;20022;-70
2023/03/06 09:29:51;;;;;;;8.95;2.55;;;;;;;0.72;62.96;97547.22;7341658;19;20018;-70
2023/03/06 09:32:16;;;;;;;2.08;1.27;;;;;;;0.64;62.20;97541.63;7342889;19;20090;-70
2023/03/06 09:34:40;;;;;;;1.75;0.90;;;;;;;0.72;62.49;97542.81;7337348;19;20092;-72
2023/03/06 09:37:05;;;;;;;1.65;1.30;;;;;;;0.64;61.95;97547.72;7340074;19;20063;-70
2023/03/06 09:39:30;;;;;;;5.05;1.90;;;;;;;0.84;61.81;97546.41;7338694;19;20011;-70
2023/03/06 09:41:59;;;;;;;2.05;1.13;;;;;;;1.02;61.40;97550.44;7343169;19;20014;-71
2023/03/06 09:44:30;;;;;;;5.00;1.73;;;;;;;1.04;61.31;97550.34;7346006;19;20030;-69
2023/03/06 09:47:34;;;;;;;2.42;1.33;;;;;;;0.89;62.06;97559.25;7347527;19;20509;-71
2023/03/06 09:50:17;;;;;;;5.38;2.05;;;;;;;0.85;64.12;97552.50;7347313;19;20085;-70
2023/03/06 09:52:50;;;;;;;1.95;1.60;;;;;;;0.92;63.92;97553.78;7345971;19;20015;-68
2023/03/06 09:55:20;;;;;;;4.10;1.75;;;;;;;0.74;63.63;97550.59;7347652;19;20014;-68
2023/03/06 09:58:03;;;;;;;1.40;1.30;;;;;;;0.66;64.08;97553.72;7345814;19;20018;-69
2023/03/06 10:01:05;;;;;;;1.63;1.50;;;;;;;0.61;64.23;97549.69;7348661;19;20014;-69
2023/03/06 10:03:47;;;;;;;1.67;1.00;;;;;;;0.58;63.75;97560.38;7349653;19;20026;-69
2023/03/06 10:06:14;;;;;;;3.17;1.77;;;;;;;0.61;63.62;97565.44;7351034;19;20011;-68
2023/03/06 10:08:59;;;;;;;3.08;2.63;;;;;;;0.78;62.39;97562.56;7357341;19;20061;-70
2023/03/06 10:11:31;;;;;;;1.88;1.75;;;;;;;0.79;62.04;97558.16;7358014;19;20006;-69
2023/03/06 10:14:23;;;;;;;1.63;1.25;;;;;;;1.04;62.73;97553.81;7349496;19;20109;-69
2023/03/06 10:16:48;;;;;;;4.53;2.85;;;;;;;1.08;62.87;97552.66;7350991;19;20433;-68
2023/03/06 10:19:18;;;;;;;2.80;1.52;;;;;;;1.25;61.93;97555.94;7351119;19;20478;-68
2023/03/06 10:22:09;;;;;;;5.97;2.10;;;;;;;1.85;59.98;97555.31;7347459;19;20021;-68
2023/03/06 10:25:12;;;;;;;1.70;1.48;;;;;;;3.13;58.02;97546.88;7348811;19;20391;-68
2023/03/06 10:27:52;;;;;;;3.55;2.60;;;;;;;4.64;55.01;97542.00;7348032;19;20037;-68
2023/03/06 10:30:39;;;;;;;2.92;1.27;;;;;;;5.55;52.09;97532.69;7347707;19;20022;-68
2023/03/06 10:33:10;;;;;;;5.03;1.35;;;;;;;4.80;50.01;97532.84;7346270;19;20025;-68
2023/03/06 10:35:49;;;;;;;3.90;1.83;;;;;;;4.00;51.63;97544.50;7348308;19;20060;-69
2023/03/06 10:38:26;;;;;;;1.33;1.23;;;;;;;3.07;52.19;97542.06;7346982;19;20018;-69
2023/03/06 10:41:09;;;;;;;4.93;1.20;;;;;;;2.61;54.45;97552.50;7349128;19;20463;-70
2023/03/06 10:43:36;;;;;;;2.40;1.35;;;;;;;2.06;55.94;97564.31;7349085;19;20410;-69
2023/03/06 10:46:01;;;;;;;1.45;1.15;;;;;;;2.03;57.34;97564.56;7345981;19;20489;-69
2023/03/06 10:48:28;;;;;;;6.20;1.83;;;;;;;1.85;57.33;97557.94;7343593;19;20012;-69
2023/03/06 10:51:16;;;;;;;5.97;2.05;;;;;;;1.83;58.28;97561.53;7346853;19;20010;-75
2023/03/06 10:54:12;;;;;;;3.33;1.35;;;;;;;1.63;58.60;97559.44;7342477;19;20026;-74
2023/03/06 10:56:42;;;;;;;3.05;2.00;;;;;;;1.66;58.82;97561.84;7342485;19;20815;-78
2023/03/06 10:59:21;;;;;;;2.00;1.73;;;;;;;1.85;59.22;97571.09;7344337;19;20459;-76
2023/03/06 11:01:51;;;;;;;3.00;1.25;;;;;;;1.68;59.12;97567.84;7344633;19;20048;-75
2023/03/06 11:04:26;;;;;;;1.92;1.30;;;;;;;1.73;58.91;97564.88;7344616;19;20573;-74
2023/03/06 11:07:13;;;;;;;3.13;1.50;;;;;;;1.57;58.43;97562.50;7344170;19;20011;-74
2023/03/06 11:09:38;;;;;;;3.75;1.50;;;;;;;1.55;58.27;97572.25;7346062;19;20010;-74
2023/03/06 11:12:22;;;;;;;2.83;1.65;;;;;;;1.51;58.43;97573.41;7344927;19;20021;-71
2023/03/06 11:15:08;;;;;;;2.85;1.38;;;;;;;1.58;59.38;97577.28;7343154;19;20023;-71
2023/03/06 11:17:47;;;;;;;6.93;1.70;;;;;;;1.39;59.03;97568.97;7343915;19;20380;-73
2023/03/06 11:20:22;;;;;;;1.40;1.30;;;;;;;1.48;60.12;97570.97;7345278;19;20010;-71
2023/03/06 11:23:02;;;;;;;2.25;1.30;;;;;;;1.48;59.84;97576.22;7343789;19;20023;-71
2023/03/06 11:25:32;;;;;;;2.35;1.20;;;;;;;1.78;60.00;97573.31;7346290;19;20018;-71
2023/03/06 11:28:29;;;;;;;3.08;2.08;;;;;;;1.91;58.50;97575.94;7346610;19;20044;-73
2023/03/06 11:31:04;;;;;;;2.03;1.75;;;;;;;1.95;57.90;97564.25;7346263;19;20405;-74
2023/03/06 11:33:51;;;;;;;2.85;2.00;;;;;;;1.96;57.95;97568.56;7348542;19;20018;-72
2023/03/06 11:36:28;;;;;;;2.10;1.55;;;;;;;1.94;57.26;97576.53;7349100;19;20078;-72
2023/03/06 11:38:53;;;;;;;1.77;1.50;;;;;;;1.81;57.49;97571.28;7345814;19;20022;-69
2023/03/06 11:41:32;;;;;;;2.38;1.58;;;;;;;1.71;57.13;97570.25;7349620;19;20465;-72